Time;durP1;ratioP1;P1;durP2;ratioP2;P2;SDS_P1;SDS_P2;PMS_P1;PMS_P2;Temp;Humidity;BMP_temperature;BMP_pressure;BME280_temperature;BME280_humidity;BME280_pressure;Samples;Min_cycle;Max_cycle;Signal;HPM_P1;HPM_P2
2023/09/08 00:02:11;;;;;;;11.18;8.50;;;16.30;99.90;;;;;;5009741;28;20030;-60
2023/09/08 00:04:37;;;;;;;10.27;9.18;;;16.30;99.90;;;;;;5008860;28;20026;-60
2023/09/08 00:07:02;;;;;;;10.82;8.48;;;16.20;99.90;;;;;;5021196;28;20057;-61
2023/09/08 00:09:28;;;;;;;20.60;9.00;;;16.10;99.90;;;;;;5028914;28;20027;-61
2023/09/08 00:11:56;;;;;;;13.32;8.32;;;16.10;99.90;;;;;;5029285;28;20021;-60
2023/09/08 00:14:22;;;;;;;12.55;8.40;;;16.00;99.90;;;;;;5029226;28;20013;-60
2023/09/08 00:16:48;;;;;;;13.65;8.57;;;16.00;99.90;;;;;;5022524;28;20427;-60
2023/09/08 00:19:13;;;;;;;13.05;8.18;;;16.00;99.90;;;;;;5040316;28;20030;-60
2023/09/08 00:21:39;;;;;;;10.23;8.80;;;15.90;99.90;;;;;;5018039;28;20080;-60
2023/09/08 00:24:05;;;;;;;9.25;8.25;;;15.90;99.90;;;;;;5009303;28;20072;-60
2023/09/08 00:26:32;;;;;;;9.43;7.57;;;15.90;99.90;;;;;;5015683;28;20096;-60
2023/09/08 00:28:58;;;;;;;9.70;7.72;;;15.80;99.90;;;;;;5043391;28;20504;-60
2023/09/08 00:31:23;;;;;;;12.18;8.00;;;15.80;99.90;;;;;;5021182;28;20096;-61
2023/09/08 00:33:49;;;;;;;11.38;8.32;;;15.70;99.90;;;;;;5029370;28;20018;-61
2023/09/08 00:36:15;;;;;;;10.27;8.52;;;15.70;99.90;;;;;;5029056;28;20125;-61
2023/09/08 00:38:41;;;;;;;11.05;8.77;;;15.60;99.90;;;;;;5025371;28;20032;-60
2023/09/08 00:41:07;;;;;;;12.32;9.35;;;15.60;99.90;;;;;;5043824;28;20021;-60
2023/09/08 00:43:32;;;;;;;11.30;8.98;;;15.60;99.90;;;;;;5014619;28;20030;-60
2023/09/08 00:45:58;;;;;;;12.13;8.95;;;15.60;99.90;;;;;;5011484;28;20025;-60
2023/09/08 00:48:25;;;;;;;10.20;8.27;;;15.60;99.90;;;;;;5025826;28;20754;-60
2023/09/08 00:50:50;;;;;;;10.23;8.98;;;15.50;99.90;;;;;;5015608;28;20018;-61
2023/09/08 00:53:16;;;;;;;10.45;8.82;;;15.50;99.90;;;;;;5023538;28;20027;-61
2023/09/08 00:55:42;;;;;;;11.07;8.70;;;15.50;99.90;;;;;;5016795;28;20018;-60
2023/09/08 00:58:08;;;;;;;13.70;8.23;;;15.40;99.90;;;;;;5019064;28;20041;-60
2023/09/08 01:00:33;;;;;;;13.23;8.73;;;15.40;99.90;;;;;;5032011;28;20030;-60
2023/09/08 01:03:00;;;;;;;12.00;9.48;;;15.40;99.90;;;;;;5032486;28;20479;-60
2023/09/08 01:05:25;;;;;;;9.65;8.55;;;15.40;99.90;;;;;;5032444;28;20096;-60
2023/09/08 01:07:52;;;;;;;11.50;8.85;;;15.40;99.90;;;;;;5029784;28;20109;-60
2023/09/08 01:10:17;;;;;;;12.82;9.85;;;15.30;99.90;;;;;;5031421;28;20438;-60
2023/09/08 01:12:43;;;;;;;13.02;9.23;;;15.40;99.90;;;;;;5047349;28;20025;-60
2023/09/08 01:15:09;;;;;;;12.32;9.77;;;15.50;99.90;;;;;;5015946;28;20084;-61
2023/09/08 01:17:35;;;;;;;11.43;9.75;;;15.50;99.90;;;;;;5031688;28;20021;-61
2023/09/08 01:20:21;;;;;;;11.55;9.52;;;15.50;99.90;;;;;;5040822;28;20037;-59
2023/09/08 01:23:10;;;;;;;12.55;9.75;;;15.50;99.90;;;;;;5024433;28;20104;-59
2023/09/08 01:25:59;;;;;;;14.05;10.48;;;15.40;99.90;;;;;;5026757;28;20117;-60
2023/09/08 01:28:26;;;;;;;17.20;10.27;;;15.50;99.90;;;;;;5041249;28;20025;-59
2023/09/08 01:30:52;;;;;;;12.25;10.23;;;15.40;99.90;;;;;;5028609;28;20021;-59
2023/09/08 01:33:18;;;;;;;11.25;10.05;;;15.40;99.90;;;;;;5023616;28;20063;-61
2023/09/08 01:35:44;;;;;;;18.83;9.73;;;15.30;99.90;;;;;;5016374;28;20025;-61
2023/09/08 01:38:10;;;;;;;15.02;10.00;;;15.30;99.90;;;;;;5011977;28;20026;-61
2023/09/08 01:40:36;;;;;;;14.57;9.10;;;15.30;99.90;;;;;;5018350;28;20025;-61
2023/09/08 01:43:02;;;;;;;11.38;9.45;;;15.20;99.90;;;;;;5031630;28;20017;-61
2023/09/08 01:45:27;;;;;;;15.15;9.88;;;15.20;99.90;;;;;;5031659;28;20013;-61
2023/09/08 01:47:53;;;;;;;15.52;10.38;;;15.20;99.90;;;;;;5031473;28;20475;-61
2023/09/08 01:50:22;;;;;;;9.85;8.77;;;15.10;99.90;;;;;;5026098;28;20025;-61
2023/09/08 01:52:48;;;;;;;15.85;10.90;;;15.10;99.90;;;;;;5031675;28;20022;-61
2023/09/08 01:55:16;;;;;;;12.60;8.77;;;15.10;99.90;;;;;;5031270;28;20021;-61
2023/09/08 01:57:41;;;;;;;11.80;9.65;;;15.10;99.90;;;;;;5031235;28;20022;-61
2023/09/08 02:00:08;;;;;;;11.63;8.82;;;15.00;99.90;;;;;;5045183;28;20047;-60
2023/09/08 02:02:33;;;;;;;15.95;9.80;;;15.00;99.90;;;;;;5031300;28;20035;-61
2023/09/08 02:04:59;;;;;;;13.75;10.02;;;15.00;99.90;;;;;;5031158;28;20033;-60
2023/09/08 02:07:24;;;;;;;13.65;9.60;;;15.00;99.90;;;;;;5029832;28;20108;-60
2023/09/08 02:09:50;;;;;;;14.00;9.32;;;14.90;99.90;;;;;;5029609;28;20383;-60
2023/09/08 02:12:15;;;;;;;10.65;9.07;;;14.90;99.90;;;;;;5025583;28;20025;-61
2023/09/08 02:14:41;;;;;;;10.23;8.93;;;14.80;99.90;;;;;;5046489;28;20550;-61
2023/09/08 02:17:06;;;;;;;13.32;9.35;;;14.80;99.90;;;;;;5030930;28;20022;-61
2023/09/08 02:19:32;;;;;;;13.93;9.07;;;14.80;99.90;;;;;;5030401;28;20033;-61
2023/09/08 02:21:57;;;;;;;11.73;8.98;;;14.70;99.90;;;;;;5028039;28;20025;-60
2023/09/08 02:24:23;;;;;;;12.02;9.48;;;14.70;99.90;;;;;;5030760;28;20033;-61
2023/09/08 02:26:49;;;;;;;9.75;8.52;;;14.60;99.90;;;;;;5045878;28;20303;-61
2023/09/08 02:29:15;;;;;;;11.02;8.93;;;14.60;99.90;;;;;;5029895;28;20037;-61
2023/09/08 02:31:41;;;;;;;13.43;9.30;;;14.60;99.90;;;;;;5025444;28;20105;-61
2023/09/08 02:34:06;;;;;;;11.05;9.75;;;14.60;99.90;;;;;;5028798;28;20101;-61
2023/09/08 02:36:32;;;;;;;13.07;9.73;;;14.60;99.90;;;;;;5030753;28;20025;-61
2023/09/08 02:38:57;;;;;;;12.52;9.63;;;14.60;99.90;;;;;;5029946;28;20052;-61
2023/09/08 02:41:23;;;;;;;10.10;8.80;;;14.60;99.90;;;;;;5028224;28;20029;-60
2023/09/08 02:43:49;;;;;;;11.93;9.40;;;14.60;99.90;;;;;;5027012;28;20033;-60
2023/09/08 02:46:15;;;;;;;13.93;9.57;;;14.60;99.90;;;;;;5030232;28;20071;-60
2023/09/08 02:48:41;;;;;;;12.23;9.85;;;14.60;99.90;;;;;;5030263;28;20025;-60
2023/09/08 02:51:07;;;;;;;12.15;10.27;;;14.60;99.90;;;;;;5044595;28;20395;-61
2023/09/08 02:53:33;;;;;;;13.70;10.45;;;14.60;99.90;;;;;;5022415;28;20053;-61
2023/09/08 02:55:59;;;;;;;10.43;8.48;;;14.60;99.90;;;;;;5030049;28;20441;-61
2023/09/08 02:58:26;;;;;;;13.82;10.00;;;14.60;99.90;;;;;;5045179;28;20113;-60
2023/09/08 03:00:52;;;;;;;17.52;9.98;;;14.60;99.90;;;;;;5029957;28;20029;-61
2023/09/08 03:03:21;;;;;;;11.40;9.55;;;14.60;99.90;;;;;;5029493;28;20037;-60
2023/09/08 03:05:46;;;;;;;16.27;9.80;;;14.70;99.90;;;;;;5030333;28;20101;-60
2023/09/08 03:08:12;;;;;;;12.23;9.43;;;14.70;99.90;;;;;;5013353;28;20125;-61
2023/09/08 03:10:37;;;;;;;12.65;10.18;;;14.60;99.90;;;;;;5029692;28;20026;-61
2023/09/08 03:13:06;;;;;;;12.65;10.00;;;14.70;99.90;;;;;;5021815;28;20029;-61
2023/09/08 03:15:32;;;;;;;14.63;10.02;;;14.60;99.90;;;;;;5023163;28;20028;-61
2023/09/08 03:17:58;;;;;;;16.63;9.95;;;14.60;99.90;;;;;;5030176;28;20128;-61
2023/09/08 03:20:25;;;;;;;17.70;10.98;;;14.60;99.90;;;;;;5029633;28;20101;-61
2023/09/08 03:22:51;;;;;;;13.15;10.27;;;14.60;99.90;;;;;;5029573;28;20021;-61
2023/09/08 03:25:17;;;;;;;11.80;10.35;;;14.60;99.90;;;;;;5029036;28;20029;-60
2023/09/08 03:27:42;;;;;;;13.40;10.15;;;14.60;99.90;;;;;;5029847;28;20122;-60
2023/09/08 03:30:08;;;;;;;12.45;10.50;;;14.60;99.90;;;;;;5028005;28;20029;-61
2023/09/08 03:32:34;;;;;;;14.07;10.10;;;14.60;99.90;;;;;;5028299;28;20432;-62
2023/09/08 03:34:59;;;;;;;11.00;9.00;;;14.50;99.90;;;;;;5026141;28;20038;-61
2023/09/08 03:37:26;;;;;;;11.55;9.82;;;14.50;99.90;;;;;;5029411;28;20045;-61
2023/09/08 03:39:52;;;;;;;14.73;9.98;;;14.60;99.90;;;;;;5029086;28;20014;-61
2023/09/08 03:42:18;;;;;;;15.55;10.63;;;14.60;99.90;;;;;;5029068;28;20033;-63
2023/09/08 03:44:44;;;;;;;15.45;10.63;;;14.60;99.90;;;;;;5028647;28;20414;-61
2023/09/08 03:47:10;;;;;;;14.98;10.10;;;14.60;99.90;;;;;;5022031;28;20387;-61
2023/09/08 03:49:35;;;;;;;12.57;9.77;;;14.60;99.90;;;;;;5044420;28;20283;-61
2023/09/08 03:52:01;;;;;;;11.27;9.32;;;14.60;99.90;;;;;;5021329;28;20491;-61
2023/09/08 03:54:26;;;;;;;12.70;9.98;;;14.60;99.90;;;;;;5021608;28;20025;-63
2023/09/08 03:56:52;;;;;;;14.00;10.10;;;14.60;99.90;;;;;;5024529;28;20022;-60
2023/09/08 03:59:17;;;;;;;14.80;11.48;;;14.60;99.90;;;;;;5027071;28;20033;-61
2023/09/08 04:01:43;;;;;;;12.95;10.60;;;14.60;99.90;;;;;;5023617;28;20033;-61
2023/09/08 04:04:08;;;;;;;14.30;10.65;;;14.50;99.90;;;;;;5029059;28;20520;-61
2023/09/08 04:06:34;;;;;;;11.70;10.23;;;14.50;99.90;;;;;;5027812;28;20065;-60
2023/09/08 04:08:59;;;;;;;13.80;9.77;;;14.50;99.90;;;;;;5028989;28;20088;-61
2023/09/08 04:11:25;;;;;;;16.33;11.20;;;14.50;99.90;;;;;;5044379;28;20018;-61
2023/09/08 04:13:51;;;;;;;13.00;10.45;;;14.50;99.90;;;;;;5029347;28;20459;-61
2023/09/08 04:16:17;;;;;;;13.68;10.50;;;14.50;99.90;;;;;;5025017;28;20026;-61
2023/09/08 04:18:42;;;;;;;13.27;9.60;;;14.50;99.90;;;;;;5025363;28;20081;-61
2023/09/08 04:21:08;;;;;;;20.55;11.57;;;14.40;99.90;;;;;;5013621;28;20458;-61
2023/09/08 04:23:33;;;;;;;14.32;11.55;;;14.50;99.90;;;;;;5029700;28;20284;-61
2023/09/08 04:25:59;;;;;;;15.13;11.73;;;14.50;99.90;;;;;;5032426;28;20033;-62
2023/09/08 04:28:24;;;;;;;13.48;10.57;;;14.50;99.90;;;;;;5022746;28;20028;-60
2023/09/08 04:30:50;;;;;;;13.77;11.85;;;14.50;99.90;;;;;;5027193;28;20045;-62
2023/09/08 04:33:15;;;;;;;14.88;11.35;;;14.50;99.90;;;;;;5026134;28;20072;-62
2023/09/08 04:35:41;;;;;;;13.68;10.63;;;14.40;99.90;;;;;;5033429;28;20435;-60
2023/09/08 04:38:07;;;;;;;15.52;10.90;;;14.40;99.90;;;;;;5030827;28;20341;-61
2023/09/08 04:40:33;;;;;;;12.32;10.90;;;14.40;99.90;;;;;;5032500;28;20056;-61
2023/09/08 04:42:59;;;;;;;13.20;11.18;;;14.40;99.90;;;;;;5025605;28;20077;-61
2023/09/08 04:45:24;;;;;;;16.63;11.80;;;14.40;99.90;;;;;;5012879;28;20135;-60
2023/09/08 04:47:50;;;;;;;14.50;11.35;;;14.30;99.90;;;;;;5017821;28;20026;-60
2023/09/08 04:50:16;;;;;;;15.00;10.20;;;14.30;99.90;;;;;;5030519;28;20029;-60
2023/09/08 04:52:41;;;;;;;15.55;11.60;;;14.30;99.90;;;;;;5032830;28;20390;-59
2023/09/08 04:55:07;;;;;;;16.35;11.48;;;14.30;99.90;;;;;;5031056;28;20471;-59
2023/09/08 04:57:32;;;;;;;18.65;12.15;;;14.30;99.90;;;;;;5031783;28;20029;-59
2023/09/08 04:59:58;;;;;;;17.55;12.02;;;14.30;99.90;;;;;;5023877;28;20117;-61
2023/09/08 05:02:23;;;;;;;18.08;12.07;;;14.30;99.90;;;;;;5032379;28;20036;-60
2023/09/08 05:04:49;;;;;;;15.02;11.40;;;14.30;99.90;;;;;;5024228;28;20022;-60
2023/09/08 05:07:15;;;;;;;14.30;11.48;;;14.30;99.90;;;;;;5032540;28;20103;-61
2023/09/08 05:09:40;;;;;;;18.25;12.50;;;14.30;99.90;;;;;;5027193;28;20380;-61
2023/09/08 05:12:06;;;;;;;18.10;11.85;;;14.30;99.90;;;;;;5024415;28;20432;-61
2023/09/08 05:14:32;;;;;;;16.83;12.20;;;14.30;99.90;;;;;;5016149;28;20483;-60
2023/09/08 05:16:57;;;;;;;15.13;12.23;;;14.30;99.90;;;;;;5030940;28;20014;-60
2023/09/08 05:19:23;;;;;;;15.80;12.07;;;14.30;99.90;;;;;;5029251;28;20072;-60
2023/09/08 05:21:54;;;;;;;15.40;11.80;;;14.40;99.90;;;;;;5030710;28;20117;-60
2023/09/08 05:24:20;;;;;;;18.33;12.55;;;14.40;99.90;;;;;;5032184;28;20569;-61
2023/09/08 05:26:46;;;;;;;15.70;12.32;;;14.40;99.90;;;;;;5032077;28;20025;-61
2023/09/08 05:29:12;;;;;;;14.90;12.52;;;14.40;99.90;;;;;;5023553;28;20480;-61
2023/09/08 05:31:37;;;;;;;16.80;11.57;;;14.50;99.90;;;;;;5018564;28;20484;-60
2023/09/08 05:34:03;;;;;;;18.30;11.85;;;14.50;99.90;;;;;;5026329;28;20462;-60
2023/09/08 05:36:29;;;;;;;17.02;11.85;;;14.50;99.90;;;;;;5040317;28;20109;-60
2023/09/08 05:38:55;;;;;;;18.17;12.18;;;14.50;99.90;;;;;;5036278;28;20049;-60
2023/09/08 05:41:21;;;;;;;12.18;10.88;;;14.60;99.90;;;;;;5021206;28;20456;-60
2023/09/08 05:43:46;;;;;;;14.55;12.20;;;14.50;99.90;;;;;;5030551;28;20027;-60
2023/09/08 05:46:12;;;;;;;13.18;11.77;;;14.60;99.90;;;;;;5030220;28;20369;-60
2023/09/08 05:48:38;;;;;;;16.77;11.93;;;14.60;99.90;;;;;;5031559;28;20025;-60
2023/09/08 05:51:05;;;;;;;15.10;12.73;;;14.70;99.90;;;;;;5030689;28;20576;-60
2023/09/08 05:53:30;;;;;;;14.15;10.88;;;14.70;99.90;;;;;;5025842;28;20017;-60
2023/09/08 05:55:56;;;;;;;15.95;11.88;;;14.70;99.90;;;;;;5020886;28;20022;-60
2023/09/08 05:58:21;;;;;;;15.02;11.27;;;14.80;99.90;;;;;;5024114;28;20088;-60
2023/09/08 06:00:47;;;;;;;17.42;12.75;;;14.80;99.90;;;;;;5025909;28;20025;-60
2023/09/08 06:03:12;;;;;;;17.77;12.35;;;14.90;99.90;;;;;;5022640;28;20392;-60
2023/09/08 06:05:38;;;;;;;12.90;10.77;;;15.00;99.90;;;;;;5020041;28;20083;-60
2023/09/08 06:08:04;;;;;;;16.42;12.93;;;15.10;99.90;;;;;;5011802;28;20030;-60
2023/09/08 06:10:30;;;;;;;17.92;12.00;;;15.10;99.90;;;;;;5027098;28;20026;-60
2023/09/08 06:12:56;;;;;;;12.88;11.25;;;15.20;99.90;;;;;;5022930;28;20057;-60
2023/09/08 06:15:21;;;;;;;13.55;11.20;;;15.30;99.90;;;;;;5023570;28;20041;-60
2023/09/08 06:17:47;;;;;;;15.98;11.98;;;15.30;99.90;;;;;;5024648;28;20429;-60
2023/09/08 06:20:13;;;;;;;15.85;12.52;;;15.40;99.90;;;;;;5029579;28;20029;-59
2023/09/08 06:22:38;;;;;;;12.90;10.45;;;15.40;99.90;;;;;;5022558;28;20391;-59
2023/09/08 06:25:04;;;;;;;14.55;10.93;;;15.50;99.90;;;;;;5020673;28;20124;-59
2023/09/08 06:27:30;;;;;;;14.02;10.85;;;15.60;99.90;;;;;;5013957;28;20372;-60
2023/09/08 06:29:57;;;;;;;13.77;9.93;;;15.70;99.90;;;;;;5030489;28;20017;-60
2023/09/08 06:32:22;;;;;;;13.82;10.23;;;15.70;99.90;;;;;;5028889;28;20108;-60
2023/09/08 06:34:47;;;;;;;18.95;11.88;;;15.80;99.90;;;;;;5011069;28;20108;-60
2023/09/08 06:37:13;;;;;;;15.05;11.55;;;15.80;99.90;;;;;;5019162;28;20049;-59
2023/09/08 06:39:38;;;;;;;14.52;10.35;;;16.00;99.90;;;;;;5030690;28;20163;-60
2023/09/08 06:42:04;;;;;;;12.82;10.40;;;16.00;99.90;;;;;;5021097;28;20473;-59
2023/09/08 06:44:30;;;;;;;14.73;10.85;;;16.10;99.90;;;;;;5012351;28;20326;-59
2023/09/08 06:46:55;;;;;;;11.38;10.10;;;16.10;99.90;;;;;;5019368;28;20504;-59
2023/09/08 06:49:21;;;;;;;12.57;10.27;;;16.20;99.90;;;;;;5010719;28;20484;-60
2023/09/08 06:51:48;;;;;;;14.23;10.13;;;16.30;99.90;;;;;;5017732;28;20045;-59
2023/09/08 06:54:13;;;;;;;13.43;10.13;;;16.40;99.90;;;;;;5020319;28;20033;-60
2023/09/08 06:56:39;;;;;;;16.77;10.88;;;16.50;99.90;;;;;;5019415;28;20032;-59
2023/09/08 06:59:04;;;;;;;11.60;10.40;;;16.60;99.90;;;;;;5040154;28;20528;-59
2023/09/08 07:01:30;;;;;;;11.88;9.98;;;16.80;99.90;;;;;;5028174;28;20038;-60
2023/09/08 07:03:55;;;;;;;14.02;10.27;;;16.80;99.90;;;;;;5020717;28;20030;-60
2023/09/08 07:06:22;;;;;;;12.20;9.43;;;16.90;99.90;;;;;;5013123;28;20030;-60
2023/09/08 07:08:50;;;;;;;14.45;9.10;;;17.10;99.90;;;;;;5024909;28;20035;-59
2023/09/08 07:11:15;;;;;;;12.98;9.07;;;17.10;99.90;;;;;;5022087;28;20021;-60
2023/09/08 07:13:41;;;;;;;10.50;9.40;;;17.30;99.90;;;;;;5025223;28;20395;-60
2023/09/08 07:16:06;;;;;;;12.10;9.60;;;17.40;99.90;;;;;;5018587;28;20036;-59
2023/09/08 07:18:35;;;;;;;11.55;9.23;;;17.50;99.90;;;;;;5021824;28;20049;-60
2023/09/08 07:21:01;;;;;;;13.73;9.15;;;17.70;99.90;;;;;;5030429;28;20105;-60
2023/09/08 07:23:27;;;;;;;17.75;10.18;;;17.90;99.90;;;;;;5020492;28;20434;-59
2023/09/08 07:25:53;;;;;;;13.30;8.52;;;18.50;99.90;;;;;;5029402;28;20109;-60
2023/09/08 07:28:18;;;;;;;11.30;8.25;;;19.30;99.90;;;;;;5021822;28;20032;-59
2023/09/08 07:30:44;;;;;;;9.48;7.03;;;19.80;99.90;;;;;;5045063;28;20112;-59
2023/09/08 07:33:09;;;;;;;10.65;7.85;;;20.10;99.90;;;;;;5030052;28;20029;-60
2023/09/08 07:35:39;;;;;;;11.52;8.18;;;20.20;99.90;;;;;;5020281;28;20029;-60
2023/09/08 07:38:05;;;;;;;13.70;8.10;;;20.20;99.90;;;;;;5030107;28;20034;-60
2023/09/08 07:40:32;;;;;;;12.80;9.38;;;20.10;99.90;;;;;;5029562;28;20330;-60
2023/09/08 07:42:58;;;;;;;12.70;7.97;;;20.10;99.90;;;;;;5021810;28;20442;-59
2023/09/08 07:45:23;;;;;;;11.30;8.43;;;20.00;99.90;;;;;;5025375;28;20034;-61
2023/09/08 07:47:49;;;;;;;10.85;7.75;;;20.00;99.90;;;;;;5021692;28;20159;-60
2023/09/08 07:50:20;;;;;;;10.38;7.78;;;20.10;99.90;;;;;;5029439;28;20030;-60
2023/09/08 07:52:48;;;;;;;12.63;8.88;;;20.30;99.90;;;;;;5022945;28;20438;-60
2023/09/08 07:55:13;;;;;;;11.27;8.10;;;21.00;99.90;;;;;;5034865;28;20040;-60
2023/09/08 07:57:40;;;;;;;10.63;8.10;;;21.80;99.90;;;;;;5036240;28;20022;-60
2023/09/08 08:00:07;;;;;;;8.85;6.78;;;22.70;99.90;;;;;;5025462;28;20026;-60
2023/09/08 08:02:33;;;;;;;9.00;7.40;;;23.50;99.90;;;;;;5027933;28;20022;-60
2023/09/08 08:04:58;;;;;;;11.35;6.90;;;24.20;99.90;;;;;;5026413;28;20489;-60
2023/09/08 08:07:24;;;;;;;13.52;7.70;;;24.70;99.90;;;;;;5033488;28;20521;-60
2023/09/08 08:09:49;;;;;;;9.40;6.55;;;24.90;99.90;;;;;;5027198;28;20029;-61
2023/09/08 08:12:15;;;;;;;7.32;6.20;;;25.00;99.90;;;;;;5034329;28;20032;-60
2023/09/08 08:14:40;;;;;;;10.57;7.45;;;25.10;99.90;;;;;;5027919;28;20017;-60
2023/09/08 08:17:06;;;;;;;10.93;7.40;;;25.60;99.50;;;;;;5028917;28;20482;-60
2023/09/08 08:19:31;;;;;;;10.20;6.68;;;26.20;97.80;;;;;;5028268;28;20034;-60
2023/09/08 08:21:57;;;;;;;7.72;6.13;;;27.20;96.10;;;;;;5025949;28;20045;-61
2023/09/08 08:24:23;;;;;;;8.65;5.70;;;28.60;94.10;;;;;;5030445;28;20069;-61
2023/09/08 08:26:51;;;;;;;8.02;6.05;;;30.00;91.50;;;;;;5028039;28;20057;-61
2023/09/08 08:29:17;;;;;;;10.63;5.65;;;31.30;88.50;;;;;;5046883;28;20079;-61
2023/09/08 08:31:42;;;;;;;9.27;4.85;;;32.50;83.60;;;;;;5030410;28;20029;-61
2023/09/08 08:34:09;;;;;;;10.30;5.05;;;33.50;79.80;;;;;;5020727;28;20022;-61
2023/09/08 08:36:34;;;;;;;6.50;5.10;;;34.50;76.50;;;;;;5017597;28;20319;-61
2023/09/08 08:39:00;;;;;;;6.25;5.13;;;35.30;73.20;;;;;;5048953;28;20028;-62
2023/09/08 08:41:26;;;;;;;7.22;4.40;;;36.20;69.40;;;;;;5018338;28;20018;-62
2023/09/08 08:43:54;;;;;;;6.53;4.25;;;37.10;66.30;;;;;;5034187;28;20013;-62
2023/09/08 08:46:21;;;;;;;7.45;4.90;;;37.10;66.10;;;;;;5035688;28;20014;-62
2023/09/08 08:48:48;;;;;;;5.45;3.92;;;37.80;61.80;;;;;;5021334;28;20017;-62
2023/09/08 08:51:17;;;;;;;6.43;4.30;;;37.80;63.10;;;;;;5035099;28;20029;-63
2023/09/08 08:53:43;;;;;;;;;;;37.70;61.20;;;;;;5025579;28;20060;-62
2023/09/08 08:56:09;;;;;;;8.05;4.25;;;38.20;58.90;;;;;;5022051;28;20167;-62
2023/09/08 08:58:38;;;;;;;4.47;4.07;;;38.80;59.50;;;;;;5034314;28;20037;-67
2023/09/08 09:01:06;;;;;;;6.72;4.25;;;39.20;58.60;;;;;;5034941;28;20021;-67
2023/09/08 09:03:31;;;;;;;5.30;3.90;;;39.00;58.00;;;;;;5050649;28;20061;-68
2023/09/08 09:05:57;;;;;;;7.53;4.18;;;39.50;57.80;;;;;;5031639;28;20208;-68
2023/09/08 09:08:23;;;;;;;6.43;5.10;;;40.00;56.70;;;;;;5031381;28;20107;-67
2023/09/08 09:10:50;;;;;;;6.95;4.10;;;40.30;57.40;;;;;;5024087;28;20025;-68
2023/09/08 09:13:16;;;;;;;5.55;4.18;;;40.30;56.40;;;;;;5031914;28;20118;-67
2023/09/08 09:15:45;;;;;;;8.30;4.22;;;40.30;57.40;;;;;;5031840;28;20025;-67
2023/09/08 09:18:11;;;;;;;4.70;4.07;;;40.30;56.10;;;;;;5031071;28;20022;-67
2023/09/08 09:20:36;;;;;;;4.93;3.88;;;40.90;55.40;;;;;;5027569;28;20032;-67
2023/09/08 09:23:03;;;;;;;9.20;4.45;;;41.30;54.60;;;;;;5026484;28;20471;-67
2023/09/08 09:25:30;;;;;;;9.23;4.55;;;41.40;53.00;;;;;;5031748;28;20021;-67
2023/09/08 09:28:00;;;;;;;9.02;4.75;;;41.60;53.50;;;;;;5031704;28;20017;-67
2023/09/08 09:30:27;;;;;;;7.70;3.85;;;41.90;54.20;;;;;;5023279;28;20059;-67
2023/09/08 09:33:03;;;;;;;6.25;3.95;;;41.60;54.40;;;;;;5031646;28;20056;-66
2023/09/08 09:35:46;;;;;;;8.75;4.05;;;41.70;52.10;;;;;;5046724;28;20112;-66
2023/09/08 09:38:12;;;;;;;8.23;4.03;;;41.80;52.60;;;;;;5023528;28;20635;-66
2023/09/08 09:40:38;;;;;;;3.83;3.50;;;42.80;51.10;;;;;;5021712;28;20087;-66
2023/09/08 09:43:05;;;;;;;4.75;3.97;;;42.30;51.00;;;;;;5023596;28;20029;-66
2023/09/08 09:45:34;;;;;;;6.53;3.88;;;42.30;51.60;;;;;;5020520;28;20051;-66
2023/09/08 09:48:02;;;;;;;8.20;3.90;;;42.40;49.90;;;;;;5042704;28;20026;-67
2023/09/08 09:50:30;;;;;;;5.72;3.97;;;41.80;51.10;;;;;;5022372;28;20033;-67
2023/09/08 09:53:00;;;;;;;5.78;3.63;;;42.10;48.70;;;;;;5020203;28;20037;-67
2023/09/08 09:55:26;;;;;;;7.25;4.03;;;42.90;48.40;;;;;;5020959;28;20111;-67
2023/09/08 09:57:56;;;;;;;8.48;3.75;;;42.50;48.10;;;;;;5019783;28;20025;-67
2023/09/08 10:00:22;;;;;;;6.15;3.58;;;43.10;49.20;;;;;;5025861;28;20032;-67
2023/09/08 10:02:49;;;;;;;4.32;3.75;;;42.70;50.30;;;;;;5031196;28;20465;-67
2023/09/08 10:05:15;;;;;;;4.03;3.45;;;42.60;49.50;;;;;;5031536;28;20436;-67
2023/09/08 10:07:42;;;;;;;3.50;3.20;;;42.30;48.00;;;;;;5031159;28;20038;-67
2023/09/08 10:10:09;;;;;;;4.75;3.17;;;42.10;48.20;;;;;;5030282;28;20038;-67
2023/09/08 10:12:36;;;;;;;7.18;3.35;;;42.90;49.90;;;;;;5027917;28;20024;-67
2023/09/08 10:15:04;;;;;;;8.67;3.50;;;43.50;45.90;;;;;;5022681;28;20022;-67
2023/09/08 10:17:31;;;;;;;10.00;3.60;;;43.50;49.00;;;;;;5021586;28;20248;-68
2023/09/08 10:20:00;;;;;;;3.83;2.85;;;44.00;47.90;;;;;;5023972;28;20038;-67
2023/09/08 10:22:30;;;;;;;4.55;3.22;;;43.80;46.50;;;;;;5030254;28;20032;-68
2023/09/08 10:25:00;;;;;;;4.70;3.38;;;43.80;46.30;;;;;;5029385;28;20494;-67
2023/09/08 10:27:26;;;;;;;3.83;2.88;;;43.30;46.50;;;;;;5020142;28;20022;-67
2023/09/08 10:29:53;;;;;;;8.65;3.30;;;43.10;45.00;;;;;;5019889;28;20030;-69
2023/09/08 10:32:22;;;;;;;5.28;3.38;;;43.30;44.90;;;;;;5020033;28;20033;-67
2023/09/08 10:34:49;;;;;;;4.93;3.45;;;43.40;45.50;;;;;;5021077;28;20018;-67
2023/09/08 10:37:24;;;;;;;6.82;3.17;;;42.80;44.30;;;;;;5021972;28;20029;-67
2023/09/08 10:39:50;;;;;;;4.88;3.28;;;42.60;45.10;;;;;;5038308;28;20479;-67
2023/09/08 10:42:19;;;;;;;5.78;3.42;;;42.70;46.10;;;;;;5017390;28;20077;-67
2023/09/08 10:45:00;;;;;;;4.65;2.65;;;43.30;45.80;;;;;;5027958;28;20065;-67
2023/09/08 10:47:31;;;;;;;6.22;3.67;;;43.40;43.90;;;;;;5030438;28;20120;-67
2023/09/08 10:49:58;;;;;;;4.28;2.85;;;43.70;46.30;;;;;;5045089;28;20026;-68
2023/09/08 10:52:24;;;;;;;8.65;3.45;;;43.20;44.00;;;;;;5030068;28;20112;-68
2023/09/08 10:54:52;;;;;;;3.70;3.33;;;42.90;44.00;;;;;;5028847;28;20020;-68
2023/09/08 10:57:20;;;;;;;3.92;3.38;;;43.60;44.30;;;;;;5015746;28;20475;-67
2023/09/08 10:59:52;;;;;;;5.85;3.40;;;43.00;44.50;;;;;;5014022;28;20052;-67
2023/09/08 11:02:38;;;;;;;6.35;3.42;;;43.40;45.80;;;;;;5009268;28;20034;-67
2023/09/08 11:05:10;;;;;;;3.92;3.30;;;43.60;45.50;;;;;;5011333;28;20045;-67
2023/09/08 11:07:37;;;;;;;3.70;3.22;;;43.60;45.00;;;;;;5008788;28;20026;-67
2023/09/08 11:10:04;;;;;;;3.50;2.90;;;43.80;44.00;;;;;;5012925;28;20018;-67
2023/09/08 11:12:31;;;;;;;5.50;3.22;;;43.40;44.40;;;;;;5012129;28;20026;-66
2023/09/08 11:14:57;;;;;;;5.07;3.13;;;43.60;44.90;;;;;;5010647;28;20067;-67
2023/09/08 11:17:26;;;;;;;5.65;3.22;;;43.30;43.10;;;;;;5013496;28;20030;-66
2023/09/08 11:19:52;;;;;;;7.07;3.40;;;42.60;43.60;;;;;;5025655;28;20491;-67
2023/09/08 11:22:18;;;;;;;4.75;3.45;;;42.10;44.20;;;;;;5014704;28;20038;-67
2023/09/08 11:24:44;;;;;;;6.03;3.50;;;42.10;44.30;;;;;;5009291;28;20484;-67
2023/09/08 11:27:11;;;;;;;4.43;3.30;;;41.20;45.00;;;;;;5024195;28;20033;-66
2023/09/08 11:29:40;;;;;;;5.40;3.30;;;41.60;44.40;;;;;;5028960;28;20163;-66
2023/09/08 11:32:07;;;;;;;5.93;3.50;;;41.60;43.70;;;;;;5029052;28;20029;-65
2023/09/08 11:34:33;;;;;;;4.60;3.20;;;41.90;44.90;;;;;;5014165;28;20029;-64
2023/09/08 11:36:59;;;;;;;3.40;3.10;;;42.40;45.80;;;;;;5022630;28;20427;-65
2023/09/08 11:39:27;;;;;;;4.03;3.20;;;43.00;45.30;;;;;;5029949;28;20033;-70
2023/09/08 11:41:53;;;;;;;4.05;3.00;;;42.70;43.10;;;;;;5030124;28;20490;-68
2023/09/08 11:44:21;;;;;;;3.22;2.92;;;42.80;43.70;;;;;;5030222;28;20036;-66
2023/09/08 11:46:49;;;;;;;4.95;3.25;;;43.10;44.80;;;;;;5025146;28;20026;-66
2023/09/08 11:49:18;;;;;;;4.63;3.00;;;43.00;41.80;;;;;;5014500;28;20025;-66
2023/09/08 11:51:44;;;;;;;6.72;3.38;;;42.30;42.80;;;;;;5028008;28;20410;-68
2023/09/08 11:54:10;;;;;;;7.50;3.13;;;42.60;43.20;;;;;;5029708;28;20030;-67
2023/09/08 11:56:36;;;;;;;4.38;3.00;;;42.50;42.90;;;;;;5023772;28;20029;-66
2023/09/08 11:59:03;;;;;;;4.55;2.92;;;42.40;43.40;;;;;;5019899;28;20013;-65
2023/09/08 12:01:28;;;;;;;3.42;2.65;;;42.80;43.60;;;;;;5021142;28;20029;-68
2023/09/08 12:03:55;;;;;;;3.38;3.08;;;42.90;43.50;;;;;;5021478;28;20034;-65
2023/09/08 12:06:24;;;;;;;6.32;3.00;;;42.80;42.20;;;;;;5024023;28;20685;-63
2023/09/08 12:08:50;;;;;;;3.42;3.13;;;42.20;43.00;;;;;;5023855;28;20030;-63
2023/09/08 12:11:15;;;;;;;4.32;3.35;;;41.90;45.30;;;;;;5023907;28;20078;-64
2023/09/08 12:13:41;;;;;;;4.80;3.15;;;40.60;43.60;;;;;;5022568;28;20541;-64
2023/09/08 12:16:20;;;;;;;4.53;3.50;;;40.00;46.30;;;;;;5017146;28;20057;-64
2023/09/08 12:18:45;;;;;;;;;;;39.80;47.20;;;;;;5017163;28;20049;-64
2023/09/08 12:21:11;;;;;;;7.60;3.42;;;38.60;45.50;;;;;;5017610;28;19967;-63
2023/09/08 12:23:57;;;;;;;8.30;3.47;;;37.70;47.20;;;;;;5033131;28;20535;-63
2023/09/08 12:26:24;;;;;;;4.25;3.60;;;38.00;47.40;;;;;;5016533;28;20117;-63
2023/09/08 12:28:51;;;;;;;8.68;4.13;;;37.50;46.90;;;;;;5018403;28;20022;-63
2023/09/08 12:31:17;;;;;;;6.93;3.80;;;36.70;48.40;;;;;;5017648;28;20049;-65
2023/09/08 12:33:44;;;;;;;6.15;3.67;;;36.80;49.30;;;;;;5019298;28;20571;-64
2023/09/08 12:36:14;;;;;;;5.13;4.22;;;36.60;48.20;;;;;;5018736;28;20026;-63